Airfield :
LOGIN :

Register | Disclaimer

   EN    FR    IT 

 










Legend :    VFR   Marginal VFR   IFR   Intensive IFR   Very Intensive IFR
Visi :
Ceiling :
>= 8 km
>= 3000ft
5 to 8 km
1000 to 3000 ft
1500m to 5 km
500 to 1000 ft
800 to 1500m
200 to 500 ft
< 800m
< 200 ft
Symbols :   Thunderstorms  Fog  Heavy snow  Heavy precipitations  Wind > 20 kt
SIGMETs :     Misc.  Thunderstorms  Icing  Turbulence  Mountain Waves  Volcanic Ashes







- Airport Elevation : 74 ft
- IATA code : LRH
- Download approach charts


LFBH - La Rochelle Ile de Ré

CURRENT METAR :
  • 210800Z AUTO 01008KT 9000 NSC 01/M00 Q1024 NOSIG

EXPIRED METARs :
  • 210730Z AUTO 01008KT CAVOK 01/00 Q1023 NOSIG
  • 210700Z AUTO 01006KT 9999 FEW029 02/01 Q1023 NOSIG
  • 210630Z AUTO 36006KT 9999 FEW028 02/00 Q1023 NOSIG
  • 210600Z AUTO 02006KT CAVOK 02/M01 Q1022 NOSIG
  • 210530Z AUTO 03007KT 9999 FEW031 02/M01 Q1022 TEMPO OVC008

TAF AMD TAF LFBH
Valid from the 21 at 06:00 until the 22 at 06:00 UTC


210525Z 2106/2206 03008KT 9999 OVC020
BECMG 2113/2115 SCT020
BECMG 2122/2124 18010KT
BECMG 2203/2205 BKN030
TEMPO 2205/2206 4000 -RA BKN012
ATIS : +33 5 46 00 13 92
No reported NOTAMs for that airfield.



MET'MAP, your aeronautical weather chart ! - Copyright ORBIFLY December 2007 - Disclaimer

ORBIFLY MET'MAP TEAM :

Programming & Development : Alexandra Zaïnal
Concept & Development : Baudouin d'Aumeries
Co-Development & Prog : Marc-Olivier Méhu
Technical & hardware support : Manuel Goepfert

Contact : metmap@orbifly.com




SOURCES & CREDITS :

   NOAA